createdAt,value
2023-08-14T00:01:22.737Z,11.65
2023-08-14T00:06:26.814Z,11.77
2023-08-14T00:11:30.894Z,11.79
2023-08-14T00:16:34.799Z,11.85
2023-08-14T00:21:39.086Z,11.95
2023-08-14T00:26:42.952Z,12.06
2023-08-14T00:31:47.692Z,12.12
2023-08-14T00:36:51.773Z,12.14
2023-08-14T00:41:56.420Z,12.19
2023-08-14T00:47:00.555Z,12.24
2023-08-14T00:52:04.767Z,12.31
2023-08-14T00:57:08.881Z,12.39
2023-08-14T01:02:12.971Z,12.47
2023-08-14T01:07:17.255Z,12.55
2023-08-14T01:12:54.478Z,12.62
2023-08-14T01:18:02.761Z,12.65
2023-08-14T01:23:24.162Z,12.71
2023-08-14T01:28:29.658Z,12.69
2023-08-14T01:33:34.724Z,12.80
2023-08-14T01:39:03.143Z,12.81
2023-08-14T01:44:12.416Z,12.81
2023-08-14T01:49:19.533Z,12.85
2023-08-14T01:54:23.566Z,12.89
2023-08-14T01:59:46.153Z,12.92
2023-08-14T02:04:52.262Z,13.03
2023-08-14T02:09:58.082Z,13.10
2023-08-14T02:15:03.298Z,13.06
2023-08-14T02:20:10.177Z,13.04
2023-08-14T02:25:14.173Z,13.00
2023-08-14T02:30:18.386Z,13.05
2023-08-14T02:35:22.636Z,13.04
2023-08-14T02:40:26.648Z,12.94
2023-08-14T02:45:31.871Z,12.96
2023-08-14T02:50:35.825Z,12.95
2023-08-14T02:55:40.087Z,13.05
2023-08-14T03:00:44.145Z,13.03
2023-08-14T03:05:48.389Z,13.05
2023-08-14T03:10:52.658Z,13.10
2023-08-14T03:15:56.947Z,13.06
2023-08-14T03:21:01.241Z,12.93
2023-08-14T03:26:06.831Z,13.12
2023-08-14T03:31:11.634Z,13.11
2023-08-14T03:36:15.675Z,13.15
2023-08-14T03:41:21.498Z,13.10
2023-08-14T03:46:25.501Z,13.26
2023-08-14T03:51:29.625Z,13.29
2023-08-14T03:56:33.534Z,13.28
2023-08-14T04:01:39.843Z,13.30
2023-08-14T04:06:46.260Z,13.33
2023-08-14T04:11:50.838Z,13.30
2023-08-14T04:16:56.179Z,13.32
2023-08-14T04:22:00.262Z,13.41
2023-08-14T04:27:04.303Z,13.53
2023-08-14T04:32:49.710Z,13.69
2023-08-14T04:37:53.790Z,13.63
2023-08-14T04:42:58.070Z,13.66
2023-08-14T04:48:02.356Z,13.63
2023-08-14T04:53:08.428Z,13.67
2023-08-14T04:58:15.541Z,13.66
2023-08-14T05:03:19.781Z,13.72
2023-08-14T05:08:23.882Z,13.61
2023-08-14T05:13:28.094Z,13.63
2023-08-14T05:18:32.302Z,13.63
2023-08-14T05:23:36.371Z,13.77
2023-08-14T05:28:40.656Z,13.74
2023-08-14T05:33:44.623Z,13.74
2023-08-14T05:38:48.760Z,13.69
2023-08-14T05:43:52.870Z,13.75
2023-08-14T05:48:56.983Z,13.82
2023-08-14T05:54:01.190Z,13.82
2023-08-14T05:59:05.349Z,13.86
2023-08-14T06:04:09.461Z,13.90
2023-08-14T06:09:17.918Z,13.89
2023-08-14T06:14:22.521Z,13.94
2023-08-14T06:19:26.651Z,13.97
2023-08-14T06:24:31.516Z,13.94
2023-08-14T06:29:35.469Z,13.94
2023-08-14T06:34:39.746Z,14.01
2023-08-14T06:39:44.275Z,13.91
2023-08-14T06:44:48.360Z,13.86
2023-08-14T06:49:52.710Z,13.89
2023-08-14T06:54:56.732Z,13.92
2023-08-14T07:00:14.027Z,13.98
2023-08-14T07:05:18.184Z,13.97
2023-08-14T07:10:22.358Z,14.01
2023-08-14T07:15:28.097Z,14.04
2023-08-14T07:20:32.457Z,14.02
2023-08-14T07:25:36.436Z,14.10
2023-08-14T07:30:41.676Z,14.12
2023-08-14T07:35:45.886Z,14.10
2023-08-14T07:40:50.099Z,14.15
2023-08-14T07:45:54.474Z,14.21
2023-08-14T07:50:58.590Z,14.15
2023-08-14T07:56:05.225Z,14.01
2023-08-14T08:01:12.760Z,14.15
2023-08-14T08:06:16.801Z,14.31
2023-08-14T08:11:20.959Z,14.20
2023-08-14T08:16:25.008Z,14.24
2023-08-14T08:21:29.952Z,14.18
2023-08-14T08:26:33.880Z,14.27
2023-08-14T08:31:38.155Z,14.24
2023-08-14T08:36:42.278Z,14.23
2023-08-14T08:41:48.473Z,14.24
2023-08-14T08:47:05.389Z,14.30
2023-08-14T08:52:10.236Z,14.63
2023-08-14T08:57:14.502Z,14.78
2023-08-14T09:02:19.138Z,14.82
2023-08-14T09:07:23.678Z,14.77
2023-08-14T09:12:27.976Z,14.69
2023-08-14T09:17:32.626Z,14.61
2023-08-14T09:22:40.342Z,14.64
2023-08-14T09:27:45.113Z,14.66
2023-08-14T09:32:49.520Z,14.63
2023-08-14T09:37:53.910Z,14.62
2023-08-14T09:43:01.910Z,14.57
2023-08-14T09:48:06.727Z,14.45
2023-08-14T09:53:11.170Z,14.36
2023-08-14T09:58:15.172Z,14.33
2023-08-14T10:03:21.238Z,14.31
2023-08-14T10:08:25.501Z,14.29
2023-08-14T10:13:30.441Z,14.27
2023-08-14T10:18:40.083Z,14.21
2023-08-14T10:23:45.200Z,14.21
2023-08-14T10:28:49.960Z,14.29
2023-08-14T10:33:54.964Z,14.31
2023-08-14T10:39:10.649Z,14.34
2023-08-14T10:44:14.897Z,14.45
2023-08-14T10:49:19.095Z,14.51
2023-08-14T10:54:25.405Z,14.56
2023-08-14T10:59:30.215Z,14.58
2023-08-14T11:04:38.557Z,14.49
2023-08-14T11:09:48.521Z,14.35
2023-08-14T11:14:52.951Z,14.23
2023-08-14T11:19:57.056Z,14.15
2023-08-14T11:25:01.250Z,14.02
2023-08-14T11:30:08.998Z,14.10
2023-08-14T11:40:29.505Z,14.10
2023-08-14T11:45:34.072Z,14.10
2023-08-14T11:50:37.967Z,14.19
2023-08-14T11:55:42.360Z,14.23
2023-08-14T12:00:52.473Z,14.38
2023-08-14T12:06:05.897Z,14.27
2023-08-14T12:11:11.294Z,14.41
2023-08-14T12:16:19.014Z,14.46
2023-08-14T12:21:29.513Z,14.43
2023-08-14T12:26:45.480Z,14.44
2023-08-14T12:31:49.606Z,14.43
2023-08-14T12:36:53.834Z,14.34
2023-08-14T12:41:58.343Z,14.30
2023-08-14T12:47:02.583Z,14.26
2023-08-14T12:52:10.109Z,14.08
2023-08-14T12:57:17.905Z,14.15
2023-08-14T13:02:25.530Z,14.11
2023-08-14T13:07:30.868Z,14.18
2023-08-14T13:12:35.193Z,14.16
2023-08-14T13:17:39.374Z,14.11
2023-08-14T13:22:43.696Z,14.08
2023-08-14T13:27:48.013Z,14.00
2023-08-14T13:32:52.060Z,14.07
2023-08-14T13:37:56.103Z,14.09
2023-08-14T13:43:00.241Z,14.10
2023-08-14T13:48:04.538Z,14.04
2023-08-14T13:53:08.726Z,14.00
2023-08-14T13:58:13.080Z,13.88
2023-08-14T14:03:17.117Z,13.80
2023-08-14T14:08:23.758Z,13.78
2023-08-14T14:13:28.038Z,13.70
2023-08-14T14:18:32.250Z,13.62
2023-08-14T14:23:36.171Z,13.52
2023-08-14T14:28:40.545Z,13.34
2023-08-14T14:33:44.517Z,13.30
2023-08-14T14:38:48.524Z,13.32
2023-08-14T14:43:52.777Z,13.30
2023-08-14T14:48:56.741Z,13.31
2023-08-14T14:54:00.790Z,13.31
2023-08-14T14:59:04.752Z,13.19
2023-08-14T15:04:08.912Z,13.30
2023-08-14T15:09:13.256Z,13.25
2023-08-14T15:14:17.571Z,13.29
2023-08-14T15:19:22.253Z,13.28
2023-08-14T15:24:26.314Z,13.34
2023-08-14T15:29:30.365Z,13.32
2023-08-14T15:34:34.561Z,13.29
2023-08-14T15:39:39.606Z,13.08
2023-08-14T15:44:43.706Z,13.24
2023-08-14T15:49:47.774Z,13.20
2023-08-14T15:54:53.894Z,13.13
2023-08-14T15:59:58.289Z,13.18
2023-08-14T16:05:02.574Z,13.19
2023-08-14T16:10:08.371Z,13.15
2023-08-14T16:15:14.919Z,13.10
2023-08-14T16:20:18.903Z,13.11
2023-08-14T16:25:23.062Z,13.05
2023-08-14T16:30:27.010Z,12.86
2023-08-14T16:35:31.276Z,13.01
2023-08-14T16:40:41.677Z,13.01
2023-08-14T16:45:50.445Z,12.76
2023-08-14T16:50:55.388Z,12.71
2023-08-14T16:55:59.504Z,12.85
2023-08-14T17:01:03.673Z,12.84
2023-08-14T17:06:26.711Z,12.80
2023-08-14T17:11:49.664Z,12.79
2023-08-14T17:16:54.258Z,12.76
2023-08-14T17:21:58.265Z,12.73
2023-08-14T17:27:02.446Z,12.65
2023-08-14T17:32:06.785Z,12.59
2023-08-14T17:37:35.415Z,12.59
2023-08-14T17:42:40.514Z,12.53
2023-08-14T17:47:44.654Z,12.49
2023-08-14T17:52:48.576Z,12.48
2023-08-14T17:57:52.660Z,12.43
2023-08-14T18:02:56.594Z,12.43
2023-08-14T18:08:00.850Z,12.35
2023-08-14T18:13:05.349Z,12.34
2023-08-14T18:18:10.071Z,12.38
2023-08-14T18:23:14.095Z,12.35
2023-08-14T18:28:17.970Z,12.17
2023-08-14T18:33:22.108Z,12.33
2023-08-14T18:38:27.013Z,12.33
2023-08-14T18:43:31.115Z,12.31
2023-08-14T18:48:35.311Z,12.19
2023-08-14T18:53:39.372Z,12.29
2023-08-14T18:58:43.801Z,12.25
2023-08-14T19:03:47.743Z,12.26
2023-08-14T19:08:51.848Z,12.29
2023-08-14T19:13:55.916Z,12.32
2023-08-14T19:19:00.237Z,12.30
2023-08-14T19:24:04.646Z,12.35
2023-08-14T19:29:08.706Z,12.37
2023-08-14T19:34:12.828Z,12.36
2023-08-14T19:39:19.100Z,12.39
2023-08-14T19:44:32.317Z,12.38
2023-08-14T19:49:36.312Z,12.33
2023-08-14T19:54:40.459Z,12.33
2023-08-14T19:59:44.476Z,12.22
2023-08-14T20:04:50.767Z,12.33
2023-08-14T20:09:55.143Z,12.37
2023-08-14T20:14:59.564Z,12.34
2023-08-14T20:20:04.187Z,12.43
2023-08-14T20:25:08.694Z,12.45
2023-08-14T20:30:13.588Z,12.44
2023-08-14T20:35:17.465Z,12.50
2023-08-14T20:40:21.672Z,12.50
2023-08-14T20:45:25.649Z,12.49
2023-08-14T20:50:29.936Z,12.50
2023-08-14T20:55:35.362Z,12.48
2023-08-14T21:00:42.390Z,12.46
2023-08-14T21:05:47.749Z,12.47
2023-08-14T21:10:51.810Z,12.46
2023-08-14T21:16:00.372Z,12.38
2023-08-14T21:21:05.698Z,12.46
2023-08-14T21:26:09.563Z,12.43
2023-08-14T21:31:13.871Z,12.45
2023-08-14T21:36:17.910Z,12.38
2023-08-14T21:41:21.953Z,12.40
2023-08-14T21:46:26.050Z,12.44
2023-08-14T21:51:30.323Z,12.43
2023-08-14T21:56:34.552Z,12.41
2023-08-14T22:01:38.658Z,12.32
2023-08-14T22:06:42.715Z,12.38
2023-08-14T22:11:46.625Z,12.37
2023-08-14T22:16:52.814Z,12.34
2023-08-14T22:21:57.141Z,12.38
2023-08-14T22:27:03.409Z,12.38
2023-08-14T22:32:07.450Z,12.36
2023-08-14T22:37:11.757Z,12.38
2023-08-14T22:42:25.124Z,12.36
2023-08-14T22:47:29.071Z,12.42
2023-08-14T22:52:33.367Z,12.38
2023-08-14T22:57:37.343Z,12.44
2023-08-14T23:02:41.623Z,12.20
2023-08-14T23:07:45.604Z,12.44
2023-08-14T23:12:49.712Z,12.39
2023-08-14T23:17:53.896Z,12.40
2023-08-14T23:22:58.052Z,12.38
2023-08-14T23:28:02.224Z,12.41
2023-08-14T23:33:07.744Z,12.42
2023-08-14T23:38:11.954Z,12.41
2023-08-14T23:43:15.842Z,12.46
2023-08-14T23:48:20.173Z,12.45
2023-08-14T23:53:24.659Z,12.50
2023-08-14T23:58:28.600Z,12.45
